createdAt,value
2022-10-26T00:01:58.962Z,5.72
2022-10-26T00:04:28.616Z,6.05
2022-10-26T00:06:59.337Z,6.85
2022-10-26T00:09:28.927Z,5.80
2022-10-26T00:12:07.219Z,6.88
2022-10-26T00:14:34.681Z,7.13
2022-10-26T00:17:02.476Z,6.30
2022-10-26T00:19:33.012Z,7.30
2022-10-26T00:22:04.261Z,8.05
2022-10-26T00:24:33.727Z,6.22
2022-10-26T00:27:03.151Z,6.50
2022-10-26T00:29:30.437Z,7.18
2022-10-26T00:32:14.467Z,6.85
2022-10-26T00:34:41.936Z,7.72
2022-10-26T00:37:10.732Z,8.95
2022-10-26T00:39:40.988Z,7.88
2022-10-26T00:43:17.547Z,7.57
2022-10-26T00:45:23.107Z,6.63
2022-10-26T00:48:05.653Z,7.35
2022-10-26T00:50:54.158Z,6.95
2022-10-26T00:53:25.023Z,8.55
2022-10-26T00:55:59.796Z,8.63
2022-10-26T00:58:27.502Z,6.85
2022-10-26T01:01:03.964Z,7.25
2022-10-26T01:03:36.593Z,7.80
2022-10-26T01:06:08.161Z,6.30
2022-10-26T01:08:35.837Z,8.73
2022-10-26T01:11:13.478Z,7.38
2022-10-26T01:13:43.926Z,7.32
2022-10-26T01:16:33.286Z,7.22
2022-10-26T01:19:18.856Z,7.65
2022-10-26T01:21:53.876Z,8.10
2022-10-26T01:24:47.054Z,6.85
2022-10-26T01:27:29.488Z,7.68
2022-10-26T01:30:20.322Z,8.75
2022-10-26T01:33:12.791Z,9.55
2022-10-26T01:35:50.698Z,9.35
2022-10-26T01:38:52.287Z,8.43
2022-10-26T01:42:01.958Z,10.00
2022-10-26T01:44:48.971Z,10.82
2022-10-26T01:47:23.977Z,10.48
2022-10-26T01:50:02.161Z,10.80
2022-10-26T01:52:31.309Z,10.40
2022-10-26T01:55:47.966Z,9.40
2022-10-26T01:58:53.323Z,8.77
2022-10-26T02:01:41.357Z,10.70
2022-10-26T02:04:39.240Z,11.10
2022-10-26T02:07:41.624Z,13.10
2022-10-26T02:10:40.962Z,10.10
2022-10-26T02:13:18.856Z,12.27
2022-10-26T02:15:54.336Z,14.38
2022-10-26T02:19:10.306Z,10.32
2022-10-26T02:21:55.881Z,11.35
2022-10-26T02:24:25.136Z,10.57
2022-10-26T02:26:57.742Z,10.40
2022-10-26T02:29:33.777Z,10.23
2022-10-26T02:32:02.616Z,11.55
2022-10-26T02:34:38.047Z,11.82
2022-10-26T02:37:10.717Z,9.95
2022-10-26T02:39:49.182Z,11.30
2022-10-26T02:42:24.038Z,11.48
2022-10-26T02:45:03.686Z,9.82
2022-10-26T02:47:33.077Z,9.85
2022-10-26T02:50:03.296Z,12.00
2022-10-26T02:52:49.519Z,10.68
2022-10-26T02:55:34.543Z,9.20
2022-10-26T02:58:09.806Z,10.40
2022-10-26T03:00:37.178Z,9.60
2022-10-26T03:03:09.027Z,9.82
2022-10-26T03:05:45.092Z,9.57
2022-10-26T03:08:15.941Z,9.30
2022-10-26T03:10:46.332Z,9.45
2022-10-26T03:13:19.543Z,11.02
2022-10-26T03:15:59.759Z,11.73
2022-10-26T03:18:29.411Z,11.25
2022-10-26T03:21:01.611Z,10.63
2022-10-26T03:23:28.876Z,11.13
2022-10-26T03:26:02.156Z,9.23
2022-10-26T03:28:35.457Z,14.88
2022-10-26T03:31:06.436Z,11.70
2022-10-26T03:33:35.386Z,10.82
2022-10-26T03:36:02.673Z,12.20
2022-10-26T03:38:30.192Z,10.85
2022-10-26T03:41:12.003Z,10.75
2022-10-26T03:43:41.002Z,10.48
2022-10-26T03:46:27.996Z,10.68
2022-10-26T03:48:56.557Z,9.70
2022-10-26T03:51:23.786Z,10.88
2022-10-26T03:53:54.166Z,11.57
2022-10-26T03:56:21.496Z,10.07
2022-10-26T03:59:08.992Z,10.38
2022-10-26T04:01:37.637Z,12.43
2022-10-26T04:04:05.100Z,9.18
2022-10-26T04:06:34.424Z,12.60
2022-10-26T04:09:05.412Z,10.48
2022-10-26T04:11:32.736Z,11.05
2022-10-26T04:14:07.564Z,9.18
2022-10-26T04:16:37.881Z,10.13
2022-10-26T04:19:07.618Z,10.30
2022-10-26T04:21:42.637Z,10.18
2022-10-26T04:24:16.438Z,9.93
2022-10-26T04:26:46.282Z,10.35
2022-10-26T04:29:16.162Z,9.65
2022-10-26T04:34:13.908Z,9.38
2022-10-26T04:36:41.507Z,9.70
2022-10-26T04:39:11.371Z,10.77
2022-10-26T04:41:41.437Z,8.82
2022-10-26T04:44:18.047Z,9.75
2022-10-26T04:46:49.172Z,12.52
2022-10-26T04:49:18.719Z,12.65
2022-10-26T04:51:56.667Z,9.65
2022-10-26T04:54:24.073Z,9.68
2022-10-26T04:56:56.791Z,9.85
2022-10-26T04:59:24.033Z,10.52
2022-10-26T05:01:53.811Z,9.82
2022-10-26T05:04:22.478Z,9.85
2022-10-26T05:06:49.802Z,10.80
2022-10-26T05:09:17.788Z,13.70
2022-10-26T05:11:46.058Z,11.35
2022-10-26T05:14:18.194Z,11.25
2022-10-26T05:16:45.491Z,14.30
2022-10-26T05:19:17.762Z,11.90
2022-10-26T05:24:14.422Z,11.00
2022-10-26T05:26:46.983Z,10.27
2022-10-26T05:29:19.207Z,11.50
2022-10-26T05:31:48.907Z,11.52
2022-10-26T05:34:20.406Z,10.20
2022-10-26T05:36:47.531Z,10.23
2022-10-26T05:39:17.432Z,12.48
2022-10-26T05:41:44.542Z,11.57
2022-10-26T05:44:11.799Z,12.57
2022-10-26T05:46:40.141Z,12.95
2022-10-26T05:49:07.287Z,11.05
2022-10-26T05:51:35.277Z,13.00
2022-10-26T05:54:04.622Z,13.18
2022-10-26T05:56:37.972Z,13.23
2022-10-26T05:59:13.721Z,20.10
2022-10-26T06:02:09.408Z,17.75
2022-10-26T06:04:48.148Z,11.88
2022-10-26T06:07:20.557Z,13.45
2022-10-26T06:09:48.437Z,13.65
2022-10-26T06:12:19.266Z,16.75
2022-10-26T06:14:50.059Z,13.13
2022-10-26T06:17:54.482Z,12.98
2022-10-26T06:20:31.369Z,13.15
2022-10-26T06:23:35.757Z,12.48
2022-10-26T06:26:18.477Z,13.45
2022-10-26T06:29:11.073Z,14.70
2022-10-26T06:31:38.316Z,17.02
2022-10-26T06:34:05.655Z,14.85
2022-10-26T06:36:33.663Z,10.57
2022-10-26T06:39:04.691Z,14.20
2022-10-26T06:41:33.510Z,12.40
2022-10-26T06:44:03.668Z,11.05
2022-10-26T06:46:39.745Z,12.77
2022-10-26T06:49:15.906Z,14.60
2022-10-26T06:52:01.596Z,11.15
2022-10-26T06:54:50.446Z,14.77
2022-10-26T06:57:33.388Z,13.73
2022-10-26T07:00:22.110Z,15.45
2022-10-26T07:02:50.306Z,15.45
2022-10-26T07:05:20.379Z,15.23
2022-10-26T07:07:48.651Z,17.70
2022-10-26T07:10:18.096Z,14.18
2022-10-26T07:12:48.079Z,13.60
2022-10-26T07:15:19.288Z,15.35
2022-10-26T07:17:48.764Z,12.77
2022-10-26T07:20:20.917Z,13.98
2022-10-26T07:22:55.745Z,14.57
2022-10-26T07:25:26.957Z,13.30
2022-10-26T07:28:02.297Z,13.07
2022-10-26T07:30:31.348Z,13.63
2022-10-26T07:33:03.341Z,14.38
2022-10-26T07:35:30.537Z,12.82
2022-10-26T07:37:59.256Z,14.80
2022-10-26T07:40:27.139Z,16.23
2022-10-26T07:42:58.106Z,12.85
2022-10-26T07:45:25.887Z,15.27
2022-10-26T07:47:55.910Z,12.90
2022-10-26T07:50:26.137Z,15.15
2022-10-26T07:52:53.395Z,14.63
2022-10-26T07:55:21.061Z,16.20
2022-10-26T07:57:51.028Z,13.52
2022-10-26T08:00:21.015Z,14.20
2022-10-26T08:02:48.072Z,17.23
2022-10-26T08:05:15.188Z,22.15
2022-10-26T08:07:47.847Z,23.70
2022-10-26T08:10:19.227Z,20.83
2022-10-26T08:12:49.518Z,20.95
2022-10-26T08:15:20.897Z,23.30
2022-10-26T08:17:49.632Z,22.75
2022-10-26T08:20:17.038Z,17.60
2022-10-26T08:22:44.391Z,23.30
2022-10-26T08:25:13.732Z,19.65
2022-10-26T08:27:45.062Z,16.25
2022-10-26T08:30:15.047Z,20.58
2022-10-26T08:32:45.753Z,19.05
2022-10-26T08:35:14.460Z,20.85
2022-10-26T08:37:41.529Z,16.30
2022-10-26T08:40:16.008Z,18.73
2022-10-26T08:42:51.935Z,18.80
2022-10-26T08:45:36.611Z,22.58
2022-10-26T08:48:09.776Z,17.10
2022-10-26T08:50:52.797Z,19.63
2022-10-26T08:53:34.178Z,21.50
2022-10-26T08:56:09.321Z,17.95
2022-10-26T08:58:47.217Z,20.65
2022-10-26T09:01:16.407Z,22.15
2022-10-26T09:03:43.607Z,16.23
2022-10-26T09:06:14.566Z,22.40
2022-10-26T09:09:00.137Z,18.48
2022-10-26T09:11:43.766Z,17.90
2022-10-26T09:14:38.636Z,19.80
2022-10-26T09:17:11.846Z,16.05
2022-10-26T09:19:52.026Z,17.48
2022-10-26T09:22:35.292Z,18.10
2022-10-26T09:25:20.617Z,17.20
2022-10-26T09:28:01.535Z,20.02
2022-10-26T09:30:31.767Z,18.88
2022-10-26T09:33:22.587Z,17.70
2022-10-26T09:36:03.163Z,16.98
2022-10-26T09:38:43.916Z,18.02
2022-10-26T09:41:44.102Z,18.85
2022-10-26T09:44:27.215Z,14.52
2022-10-26T09:47:31.127Z,14.95
2022-10-26T09:50:12.892Z,17.80
2022-10-26T09:52:42.267Z,19.55
2022-10-26T09:55:12.662Z,18.83
2022-10-26T09:57:52.956Z,20.70
2022-10-26T10:00:22.941Z,20.50
2022-10-26T10:02:58.247Z,22.85
2022-10-26T10:05:52.035Z,22.98
2022-10-26T10:08:21.696Z,21.17
2022-10-26T10:10:55.706Z,22.85
2022-10-26T10:13:26.669Z,19.05
2022-10-26T10:16:12.336Z,21.25
2022-10-26T10:18:43.526Z,18.98
2022-10-26T10:21:12.911Z,23.85
2022-10-26T10:23:54.606Z,15.38
2022-10-26T10:26:21.767Z,15.88
2022-10-26T10:29:01.066Z,20.85
2022-10-26T10:31:33.439Z,18.92
2022-10-26T10:34:00.830Z,17.27
2022-10-26T10:36:30.400Z,14.18
2022-10-26T10:38:58.866Z,15.05
2022-10-26T10:41:36.725Z,14.00
2022-10-26T10:44:29.077Z,20.38
2022-10-26T10:47:16.383Z,16.70
2022-10-26T10:49:52.483Z,23.10
2022-10-26T10:52:33.928Z,18.05
2022-10-26T10:55:18.706Z,22.15
2022-10-26T10:58:21.496Z,24.17
2022-10-26T11:00:49.562Z,25.13
2022-10-26T11:03:57.221Z,21.23
2022-10-26T11:06:31.866Z,25.27
2022-10-26T11:09:14.347Z,24.52
2022-10-26T11:11:53.251Z,23.40
2022-10-26T11:14:35.675Z,23.67
2022-10-26T11:17:26.179Z,28.38
2022-10-26T11:19:59.031Z,25.08
2022-10-26T11:22:52.504Z,25.90
2022-10-26T11:28:55.822Z,24.98
2022-10-26T11:31:38.146Z,26.40
2022-10-26T11:34:16.441Z,19.30
2022-10-26T11:36:52.971Z,20.23
2022-10-26T11:39:36.068Z,23.00
2022-10-26T11:42:28.621Z,20.45
2022-10-26T11:45:17.386Z,27.27
2022-10-26T11:47:53.776Z,23.00
2022-10-26T11:50:27.741Z,23.75
2022-10-26T11:53:04.316Z,20.67
2022-10-26T11:55:33.240Z,23.98
2022-10-26T11:58:02.996Z,22.08
2022-10-26T12:00:31.543Z,22.25
2022-10-26T12:03:14.625Z,23.50
2022-10-26T12:05:46.237Z,23.75
2022-10-26T12:08:37.634Z,21.45
2022-10-26T12:11:50.540Z,19.33
2022-10-26T12:14:34.861Z,21.08
2022-10-26T12:17:08.461Z,19.58
2022-10-26T12:19:49.369Z,22.42
2022-10-26T12:22:19.256Z,20.38
2022-10-26T12:25:04.487Z,20.17
2022-10-26T12:27:56.649Z,21.63
2022-10-26T12:30:28.286Z,21.05
2022-10-26T12:33:04.236Z,19.23
2022-10-26T12:35:42.948Z,23.02
2022-10-26T12:38:26.234Z,19.17
2022-10-26T12:41:08.819Z,21.42
2022-10-26T12:43:41.284Z,23.45
2022-10-26T12:46:14.248Z,20.73
2022-10-26T12:48:46.426Z,20.00
2022-10-26T12:51:19.555Z,22.20
2022-10-26T12:54:15.311Z,22.90
2022-10-26T12:56:51.137Z,23.20
2022-10-26T12:59:32.476Z,23.65
2022-10-26T13:02:13.646Z,25.15
2022-10-26T13:04:55.544Z,27.88
2022-10-26T13:07:36.688Z,22.20
2022-10-26T13:10:12.272Z,25.63
2022-10-26T13:12:59.938Z,28.05
2022-10-26T13:15:38.856Z,20.88
2022-10-26T13:18:20.750Z,26.00
2022-10-26T13:21:08.671Z,18.58
2022-10-26T13:23:41.476Z,24.20
2022-10-26T13:26:18.277Z,20.33
2022-10-26T13:28:58.817Z,24.67
2022-10-26T13:31:28.931Z,20.05
2022-10-26T13:37:08.035Z,23.02
2022-10-26T13:39:51.497Z,22.60
2022-10-26T13:42:26.597Z,24.05
2022-10-26T13:45:17.932Z,21.92
2022-10-26T13:47:47.441Z,23.85
2022-10-26T13:50:21.491Z,29.60
2022-10-26T13:52:52.141Z,23.35
2022-10-26T13:55:37.299Z,25.00
2022-10-26T13:58:31.136Z,21.80
2022-10-26T14:01:10.592Z,18.55
2022-10-26T14:03:40.300Z,17.63
2022-10-26T14:06:15.881Z,22.50
2022-10-26T14:08:46.541Z,26.42
2022-10-26T14:11:19.797Z,23.33
2022-10-26T14:13:49.715Z,24.20
2022-10-26T14:16:25.007Z,23.45
2022-10-26T14:18:58.221Z,26.50
2022-10-26T14:21:25.437Z,24.55
2022-10-26T14:23:58.417Z,27.42
2022-10-26T14:26:32.776Z,28.42
2022-10-26T14:29:04.607Z,28.33
2022-10-26T14:31:34.109Z,28.75
2022-10-26T14:34:04.636Z,22.60
2022-10-26T14:36:42.770Z,23.08
2022-10-26T14:39:31.068Z,30.73
2022-10-26T14:41:59.806Z,31.38
2022-10-26T14:44:30.036Z,27.05
2022-10-26T14:46:57.226Z,24.70
2022-10-26T14:49:27.718Z,26.50
2022-10-26T14:52:00.749Z,24.15
2022-10-26T14:54:30.129Z,27.73
2022-10-26T14:56:57.410Z,27.52
2022-10-26T14:59:30.332Z,22.40
2022-10-26T15:02:17.542Z,21.15
2022-10-26T15:05:19.028Z,25.00
2022-10-26T15:07:48.812Z,23.67
2022-10-26T15:10:37.639Z,25.15
2022-10-26T15:13:46.641Z,25.35
2022-10-26T15:16:19.571Z,26.48
2022-10-26T15:18:49.281Z,25.88
2022-10-26T15:21:34.366Z,25.73
2022-10-26T15:24:02.381Z,20.38
2022-10-26T15:26:30.404Z,21.92
2022-10-26T15:28:57.636Z,24.02
2022-10-26T15:31:30.741Z,27.65
2022-10-26T15:34:12.561Z,22.98
2022-10-26T15:36:43.803Z,23.40
2022-10-26T15:39:10.939Z,21.95
2022-10-26T15:41:47.838Z,25.13
2022-10-26T15:44:20.407Z,22.33
2022-10-26T15:46:47.996Z,20.67
2022-10-26T15:49:20.473Z,17.63
2022-10-26T15:51:48.928Z,20.42
2022-10-26T15:54:16.356Z,19.15
2022-10-26T15:56:46.079Z,18.52
2022-10-26T15:59:20.661Z,25.33
2022-10-26T16:01:48.007Z,23.08
2022-10-26T16:04:15.214Z,26.40
2022-10-26T16:06:44.991Z,17.52
2022-10-26T16:09:19.291Z,23.95
2022-10-26T16:11:46.477Z,20.58
2022-10-26T16:14:14.947Z,22.02
2022-10-26T16:16:44.532Z,24.88
2022-10-26T16:19:31.443Z,15.52
2022-10-26T16:22:01.288Z,20.80
2022-10-26T16:24:30.442Z,18.60
2022-10-26T16:26:58.236Z,21.85
2022-10-26T16:29:25.411Z,21.13
2022-10-26T16:31:52.596Z,19.55
2022-10-26T16:34:19.676Z,17.70
2022-10-26T16:36:46.717Z,23.23
2022-10-26T16:39:16.916Z,20.58
2022-10-26T16:41:43.971Z,20.65
2022-10-26T16:44:13.841Z,20.98
2022-10-26T16:46:40.917Z,22.50
2022-10-26T16:49:08.097Z,20.08
2022-10-26T16:51:35.267Z,22.90
2022-10-26T16:54:02.382Z,24.48
2022-10-26T16:56:30.658Z,21.75
2022-10-26T16:58:58.058Z,24.98
2022-10-26T17:01:25.713Z,21.08
2022-10-26T17:03:53.514Z,20.83
2022-10-26T17:06:20.730Z,19.30
2022-10-26T17:08:47.863Z,18.13
2022-10-26T17:11:19.743Z,15.35
2022-10-26T17:13:47.866Z,16.95
2022-10-26T17:16:17.898Z,15.95
2022-10-26T17:18:47.372Z,15.93
2022-10-26T17:21:18.567Z,14.93
2022-10-26T17:23:46.256Z,13.23
2022-10-26T17:26:17.069Z,14.55
2022-10-26T17:28:44.489Z,13.27
2022-10-26T17:31:15.150Z,12.05
2022-10-26T17:33:44.732Z,14.18
2022-10-26T17:36:13.775Z,11.60
2022-10-26T17:38:42.191Z,13.02
2022-10-26T17:41:18.617Z,10.93
2022-10-26T17:43:46.866Z,12.18
2022-10-26T17:46:19.712Z,11.77
2022-10-26T17:48:47.146Z,9.00
2022-10-26T17:51:19.878Z,11.57
2022-10-26T17:53:48.691Z,12.27
2022-10-26T17:56:19.129Z,15.02
2022-10-26T17:58:50.827Z,12.32
2022-10-26T18:01:23.868Z,12.38
2022-10-26T18:03:54.027Z,10.73
2022-10-26T18:06:21.847Z,11.48
2022-10-26T18:08:51.352Z,10.45
2022-10-26T18:11:26.926Z,12.52
2022-10-26T18:13:58.330Z,12.77
2022-10-26T18:16:27.181Z,11.98
2022-10-26T18:19:00.694Z,15.70
2022-10-26T18:21:30.699Z,11.98
2022-10-26T18:23:58.938Z,13.05
2022-10-26T18:26:30.614Z,10.25
2022-10-26T18:28:59.291Z,14.68
2022-10-26T18:31:27.871Z,12.52
2022-10-26T18:33:59.517Z,10.10
2022-10-26T18:36:27.805Z,11.25
2022-10-26T18:38:55.626Z,13.80
2022-10-26T18:41:24.356Z,11.25
2022-10-26T18:43:59.019Z,11.63
2022-10-26T18:46:29.049Z,10.68
2022-10-26T18:48:57.986Z,10.48
2022-10-26T18:51:33.904Z,13.63
2022-10-26T18:54:01.512Z,11.73
2022-10-26T18:56:29.725Z,11.15
2022-10-26T18:58:59.012Z,10.07
2022-10-26T19:01:45.739Z,10.15
2022-10-26T19:04:13.056Z,12.82
2022-10-26T19:06:45.556Z,10.20
2022-10-26T19:09:13.216Z,11.65
2022-10-26T19:11:43.716Z,11.73
2022-10-26T19:14:12.512Z,12.82
2022-10-26T19:16:45.852Z,11.90
2022-10-26T19:19:14.645Z,10.80
2022-10-26T19:21:44.408Z,11.65
2022-10-26T19:24:14.368Z,11.13
2022-10-26T19:26:43.837Z,12.07
2022-10-26T19:29:16.479Z,12.15
2022-10-26T19:31:49.818Z,12.13
2022-10-26T19:34:17.701Z,10.68
2022-10-26T19:36:47.540Z,10.25
2022-10-26T19:39:17.848Z,12.60
2022-10-26T19:41:47.160Z,9.00
2022-10-26T19:44:15.622Z,9.93
2022-10-26T19:46:44.123Z,10.73
2022-10-26T19:49:15.253Z,13.38
2022-10-26T19:51:44.667Z,11.52
2022-10-26T19:54:11.939Z,14.15
2022-10-26T19:56:39.110Z,13.98
2022-10-26T19:59:09.007Z,12.50
2022-10-26T20:01:37.313Z,13.30
2022-10-26T20:04:07.461Z,10.75
2022-10-26T20:06:34.735Z,10.80
2022-10-26T20:09:04.159Z,11.80
2022-10-26T20:11:34.427Z,10.85
2022-10-26T20:14:01.551Z,12.27
2022-10-26T20:16:28.706Z,12.68
2022-10-26T20:18:55.831Z,12.00
2022-10-26T20:21:22.891Z,12.13
2022-10-26T20:23:50.098Z,11.13
2022-10-26T20:26:19.829Z,9.52
2022-10-26T20:28:51.219Z,10.75
2022-10-26T20:31:18.662Z,11.75
2022-10-26T20:33:48.803Z,10.32
2022-10-26T20:36:15.897Z,11.55
2022-10-26T20:38:43.222Z,9.82
2022-10-26T20:41:14.866Z,11.10
2022-10-26T20:43:42.843Z,11.25
2022-10-26T20:46:20.423Z,9.38
2022-10-26T20:48:51.271Z,10.50
2022-10-26T20:51:40.011Z,13.23
2022-10-26T20:54:29.087Z,10.32
2022-10-26T20:56:59.763Z,10.27
2022-10-26T20:59:42.106Z,10.00
2022-10-26T21:02:12.856Z,11.23
2022-10-26T21:04:41.316Z,11.43
2022-10-26T21:07:11.736Z,11.77
2022-10-26T21:09:38.862Z,10.95
2022-10-26T21:12:06.132Z,12.57
2022-10-26T21:14:39.672Z,13.50
2022-10-26T21:17:14.431Z,12.02
2022-10-26T21:19:41.996Z,12.30
2022-10-26T21:22:10.468Z,12.60
2022-10-26T21:24:37.544Z,10.80
2022-10-26T21:27:04.597Z,11.07
2022-10-26T21:29:31.717Z,11.18
2022-10-26T21:31:58.870Z,10.68
2022-10-26T21:34:25.997Z,11.00
2022-10-26T21:36:53.126Z,10.18
2022-10-26T21:39:20.482Z,10.82
2022-10-26T21:41:49.887Z,9.90
2022-10-26T21:44:38.856Z,10.18
2022-10-26T21:47:06.396Z,11.40
2022-10-26T21:49:33.528Z,10.18
2022-10-26T21:52:00.761Z,11.05
2022-10-26T21:54:28.248Z,12.13
2022-10-26T21:56:55.296Z,10.85
2022-10-26T21:59:24.977Z,12.43
2022-10-26T22:01:52.317Z,10.18
2022-10-26T22:04:19.671Z,8.98
2022-10-26T22:06:48.007Z,9.43
2022-10-26T22:09:15.171Z,9.95
2022-10-26T22:11:42.356Z,10.48
2022-10-26T22:14:12.038Z,9.85
2022-10-26T22:16:39.107Z,10.05
2022-10-26T22:19:11.381Z,9.77
2022-10-26T22:21:40.401Z,10.38
2022-10-26T22:24:08.930Z,9.20
2022-10-26T22:26:37.736Z,10.57
2022-10-26T22:29:05.491Z,8.60
2022-10-26T22:31:35.743Z,10.60
2022-10-26T22:34:07.736Z,9.73
2022-10-26T22:36:35.477Z,10.93
2022-10-26T22:39:02.811Z,9.95
2022-10-26T22:41:31.480Z,9.65
2022-10-26T22:43:58.676Z,11.23
2022-10-26T22:46:27.996Z,10.48
2022-10-26T22:49:04.403Z,10.32
2022-10-26T22:51:33.866Z,9.07
2022-10-26T22:54:02.353Z,8.57
2022-10-26T22:56:33.610Z,9.27
2022-10-26T22:59:03.246Z,8.70
2022-10-26T23:01:36.713Z,10.73
2022-10-26T23:04:04.088Z,9.93
2022-10-26T23:06:32.426Z,8.45
2022-10-26T23:08:59.887Z,11.15
2022-10-26T23:11:29.086Z,9.38
2022-10-26T23:14:00.691Z,10.90
2022-10-26T23:16:28.957Z,9.35
2022-10-26T23:18:56.514Z,9.93
2022-10-26T23:23:57.994Z,7.85
2022-10-26T23:26:27.333Z,10.95
2022-10-26T23:28:54.569Z,9.32
2022-10-26T23:31:26.457Z,9.52
2022-10-26T23:33:55.742Z,10.95
2022-10-26T23:36:23.408Z,11.75
2022-10-26T23:38:50.916Z,10.52
2022-10-26T23:41:18.016Z,10.52
2022-10-26T23:43:46.476Z,10.23
2022-10-26T23:46:15.943Z,9.90
2022-10-26T23:48:44.397Z,8.32
2022-10-26T23:51:11.531Z,11.80
2022-10-26T23:53:38.724Z,10.20
2022-10-26T23:56:09.687Z,9.55
2022-10-26T23:58:39.403Z,10.95
